Time;durP1;ratioP1;P1;durP2;ratioP2;P2;SDS_P1;SDS_P2;PMS_P1;PMS_P2;Temp;Humidity;BMP_temperature;BMP_pressure;BME280_temperature;BME280_humidity;BME280_pressure;Samples;Min_cycle;Max_cycle;Signal;HPM_P1;HPM_P2
2022/12/15 00:39:35;;;;;;;13.47;9.07;;;;;;;;;;5045570;28;20577;-74
2022/12/15 00:42:01;;;;;;;20.20;10.90;;;;;;;;;;5064247;28;20502;-73
2022/12/15 00:44:28;;;;;;;20.57;10.40;;;;;;;;;;5049593;28;20057;-73
2022/12/15 00:46:54;;;;;;;17.40;10.10;;;;;;;;;;5060112;28;20091;-73
2022/12/15 01:22:28;;;;;;;21.73;11.13;;;;;;;;;;5043849;28;20059;-72
2022/12/15 01:24:55;;;;;;;17.60;11.83;;;;;;;;;;5066800;28;20041;-72
2022/12/15 01:27:21;;;;;;;21.33;11.10;;;;;;;;;;5065110;28;20053;-72
2022/12/15 01:29:47;;;;;;;18.93;11.17;;;;;;;;;;5060808;28;20111;-72
2022/12/15 01:32:14;;;;;;;15.57;9.63;;;;;;;;;;5063906;28;20562;-72
2022/12/15 01:34:40;;;;;;;16.83;11.03;;;;;;;;;;5055317;28;20060;-74
2022/12/15 01:37:06;;;;;;;18.50;11.03;;;;;;;;;;5055041;28;20049;-72
2022/12/15 01:42:18;;;;;;;20.73;10.10;;;;;;;;;;5051277;28;20740;-74
2022/12/15 01:44:46;;;;;;;20.67;11.00;;;;;;;;;;5049455;28;20502;-73
2022/12/15 01:47:13;;;;;;;17.13;10.27;;;;;;;;;;5056691;28;20051;-73
2022/12/15 01:49:40;;;;;;;18.30;10.97;;;;;;;;;;5055428;28;20089;-73
2022/12/15 01:52:08;;;;;;;14.03;10.13;;;;;;;;;;5081420;28;20061;-73
2022/12/15 01:54:37;;;;;;;17.97;10.47;;;;;;;;;;5055822;28;20059;-74
2022/12/15 01:57:05;;;;;;;14.97;9.97;;;;;;;;;;5058094;28;20107;-73
2022/12/15 01:59:34;;;;;;;16.30;9.77;;;;;;;;;;5054612;28;20542;-74
2022/12/15 02:02:01;;;;;;;16.27;9.63;;;;;;;;;;5056816;28;20087;-73
2022/12/15 02:04:27;;;;;;;14.83;9.43;;;;;;;;;;5043811;28;20049;-73
2022/12/15 02:06:54;;;;;;;19.17;10.80;;;;;;;;;;5057138;28;20140;-73
2022/12/15 02:09:21;;;;;;;17.77;10.30;;;;;;;;;;5057777;28;20144;-73
2022/12/15 02:11:50;;;;;;;19.23;10.73;;;;;;;;;;5044414;28;20061;-74
2022/12/15 02:14:25;;;;;;;15.23;9.60;;;;;;;;;;5049804;28;20904;-74
2022/12/15 02:16:58;;;;;;;14.38;9.50;;;;;;;;;;5081676;28;20057;-74
2022/12/15 02:19:36;;;;;;;14.93;9.97;;;;;;;;;;5046251;28;20946;-74
2022/12/15 02:22:21;;;;;;;16.67;9.88;;;;;;;;;;5056040;28;20060;-73
2022/12/15 02:25:01;;;;;;;15.17;9.70;;;;;;;;;;5047129;28;20056;-73
2022/12/15 02:27:27;;;;;;;16.55;8.98;;;;;;;;;;5045762;28;20506;-73
2022/12/15 02:30:09;;;;;;;18.58;10.45;;;;;;;;;;5050064;28;20139;-73
2022/12/15 02:32:38;;;;;;;20.23;9.97;;;;;;;;;;5057219;28;20160;-73
2022/12/15 02:35:10;;;;;;;15.30;10.70;;;;;;;;;;5059325;28;20060;-73
2022/12/15 02:37:38;;;;;;;16.38;10.25;;;;;;;;;;5051844;28;20053;-73
2022/12/15 02:40:06;;;;;;;15.23;9.45;;;;;;;;;;5060846;28;20048;-73
2022/12/15 02:42:33;;;;;;;13.80;9.30;;;;;;;;;;5061683;28;20045;-73
2022/12/15 02:45:04;;;;;;;16.63;10.05;;;;;;;;;;5061766;28;20060;-73
2022/12/15 02:47:30;;;;;;;15.23;9.75;;;;;;;;;;5052404;28;20057;-73
2022/12/15 02:50:00;;;;;;;21.90;10.38;;;;;;;;;;5051183;28;20049;-73
2022/12/15 02:52:44;;;;;;;17.20;10.07;;;;;;;;;;5055178;28;20612;-73
2022/12/15 02:55:29;;;;;;;17.02;10.10;;;;;;;;;;5041135;28;20054;-73
2022/12/15 02:58:28;;;;;;;14.57;9.52;;;;;;;;;;5060577;28;20616;-73
2022/12/15 03:00:58;;;;;;;17.48;9.65;;;;;;;;;;5029694;28;20132;-73
2022/12/15 03:03:25;;;;;;;20.13;10.52;;;;;;;;;;5037391;28;20100;-73
2022/12/15 03:05:53;;;;;;;19.15;9.65;;;;;;;;;;5032322;28;22097;-73
2022/12/15 03:08:20;;;;;;;17.45;9.10;;;;;;;;;;5017106;28;21096;-73
2022/12/15 03:10:48;;;;;;;15.20;9.32;;;;;;;;;;5036853;28;20100;-74
2022/12/15 03:13:14;;;;;;;16.08;10.25;;;;;;;;;;5036384;28;21024;-73
2022/12/15 03:15:41;;;;;;;16.70;9.40;;;;;;;;;;5026961;28;20046;-74
2022/12/15 03:18:07;;;;;;;17.27;9.60;;;;;;;;;;5029498;28;20045;-73
2022/12/15 03:20:33;;;;;;;15.33;9.70;;;;;;;;;;5032336;28;20776;-73
2022/12/15 03:23:00;;;;;;;17.43;9.70;;;;;;;;;;5032564;28;20602;-73
2022/12/15 03:25:27;;;;;;;13.15;9.18;;;;;;;;;;5035610;28;20600;-73
2022/12/15 03:27:53;;;;;;;18.50;10.87;;;;;;;;;;5038599;28;20049;-73
2022/12/15 03:30:19;;;;;;;17.23;9.73;;;;;;;;;;5028894;28;20064;-74
2022/12/15 03:32:46;;;;;;;16.77;9.43;;;;;;;;;;5040553;28;20059;-73
2022/12/15 03:35:12;;;;;;;19.27;10.48;;;;;;;;;;5040388;28;20057;-73
2022/12/15 03:37:39;;;;;;;20.10;10.33;;;;;;;;;;5052493;28;20507;-73
2022/12/15 03:40:06;;;;;;;17.20;10.70;;;;;;;;;;5051324;28;21017;-73
2022/12/15 03:42:47;;;;;;;19.02;11.23;;;;;;;;;;5051156;28;20045;-73
2022/12/15 03:45:21;;;;;;;21.97;11.10;;;;;;;;;;5062376;28;20064;-73
2022/12/15 03:47:48;;;;;;;17.07;10.10;;;;;;;;;;5056103;28;20503;-73
2022/12/15 03:50:16;;;;;;;18.37;9.97;;;;;;;;;;5050650;28;20134;-74
2022/12/15 03:52:42;;;;;;;17.60;9.93;;;;;;;;;;5063700;28;20057;-73
2022/12/15 03:55:09;;;;;;;15.70;9.77;;;;;;;;;;5060660;28;20552;-74
2022/12/15 03:57:36;;;;;;;17.60;9.40;;;;;;;;;;5056432;28;20076;-73
2022/12/15 04:00:04;;;;;;;17.13;9.37;;;;;;;;;;5052658;28;20478;-73
2022/12/15 04:02:30;;;;;;;14.73;9.43;;;;;;;;;;5054449;28;20307;-74
2022/12/15 04:04:56;;;;;;;19.07;10.53;;;;;;;;;;5052122;28;20682;-73
2022/12/15 04:07:23;;;;;;;17.63;9.97;;;;;;;;;;5058428;28;20474;-73
2022/12/15 04:09:49;;;;;;;15.73;9.57;;;;;;;;;;5057404;28;20103;-73
2022/12/15 04:12:15;;;;;;;18.10;10.63;;;;;;;;;;5061721;28;20057;-73
2022/12/15 04:14:42;;;;;;;15.47;10.07;;;;;;;;;;5057185;28;20478;-73
2022/12/15 04:17:09;;;;;;;15.47;10.03;;;;;;;;;;5058618;28;20525;-73
2022/12/15 04:22:20;;;;;;;20.77;10.67;;;;;;;;;;5053474;28;20060;-73
2022/12/15 05:33:38;;;;;;;21.90;10.25;;;;;;;;;;5061590;28;20076;-72
2022/12/15 05:36:05;;;;;;;21.17;10.75;;;;;;;;;;5056421;28;20079;-73
2022/12/15 05:38:31;;;;;;;18.15;10.15;;;;;;;;;;5063892;28;20457;-73
2022/12/15 05:40:58;;;;;;;15.95;10.15;;;;;;;;;;5059069;28;20055;-73
2022/12/15 05:43:25;;;;;;;15.97;10.53;;;;;;;;;;5054280;28;20119;-73
2022/12/15 05:45:52;;;;;;;17.17;9.47;;;;;;;;;;5059915;28;20061;-73
2022/12/15 05:48:18;;;;;;;18.15;10.30;;;;;;;;;;5061405;28;20060;-73
2022/12/15 05:50:44;;;;;;;21.90;10.60;;;;;;;;;;5059808;28;20491;-72
2022/12/15 05:53:11;;;;;;;19.67;11.45;;;;;;;;;;5060505;28;20601;-73
2022/12/15 05:55:38;;;;;;;16.85;11.07;;;;;;;;;;5048842;28;20519;-73
2022/12/15 05:58:04;;;;;;;23.60;11.03;;;;;;;;;;5050682;28;20515;-72
2022/12/15 06:00:30;;;;;;;16.97;10.60;;;;;;;;;;5052727;28;20048;-72
2022/12/15 06:02:56;;;;;;;19.23;10.03;;;;;;;;;;5051243;28;20045;-72
2022/12/15 06:05:23;;;;;;;17.00;10.90;;;;;;;;;;5053542;28;20053;-73
2022/12/15 06:07:49;;;;;;;13.48;9.35;;;;;;;;;;5052401;28;20049;-72
2022/12/15 06:10:16;;;;;;;16.05;10.07;;;;;;;;;;5057605;28;20793;-72
2022/12/15 06:12:42;;;;;;;15.53;9.53;;;;;;;;;;5061963;28;20604;-73
2022/12/15 06:15:09;;;;;;;17.20;10.07;;;;;;;;;;5061417;28;20059;-73
2022/12/15 06:17:36;;;;;;;17.77;10.82;;;;;;;;;;5061732;28;20052;-73
2022/12/15 06:20:03;;;;;;;20.45;9.90;;;;;;;;;;5062142;28;20088;-73
2022/12/15 06:22:29;;;;;;;15.77;10.50;;;;;;;;;;5052898;28;20048;-73
2022/12/15 06:24:55;;;;;;;21.13;11.13;;;;;;;;;;5055603;28;20430;-73
2022/12/15 06:27:22;;;;;;;21.80;11.35;;;;;;;;;;5059885;28;20053;-73
2022/12/15 06:29:48;;;;;;;17.75;10.25;;;;;;;;;;5062261;28;20049;-73
2022/12/15 06:32:14;;;;;;;17.00;10.90;;;;;;;;;;5058493;28;20049;-73
2022/12/15 06:34:41;;;;;;;22.67;11.23;;;;;;;;;;5051910;28;20839;-73
2022/12/15 06:37:07;;;;;;;18.40;12.07;;;;;;;;;;5054456;28;20050;-73
2022/12/15 06:39:34;;;;;;;19.03;10.60;;;;;;;;;;5053326;28;20053;-73
2022/12/15 06:42:00;;;;;;;20.13;11.68;;;;;;;;;;5048234;28;20940;-73
2022/12/15 06:44:26;;;;;;;21.47;12.27;;;;;;;;;;5052875;28;20148;-73
2022/12/15 06:46:53;;;;;;;19.07;10.80;;;;;;;;;;5063326;28;20056;-73
2022/12/15 06:49:20;;;;;;;18.90;11.68;;;;;;;;;;5052531;28;20065;-72
2022/12/15 06:51:48;;;;;;;17.97;10.60;;;;;;;;;;5054076;28;20532;-72
2022/12/15 06:54:14;;;;;;;20.27;12.45;;;;;;;;;;5057275;28;20597;-71
2022/12/15 06:56:41;;;;;;;18.00;11.10;;;;;;;;;;5048559;28;20318;-71
2022/12/15 06:59:09;;;;;;;22.30;12.33;;;;;;;;;;5059274;28;20065;-71
2022/12/15 07:01:36;;;;;;;19.30;11.63;;;;;;;;;;5057486;28;20763;-71
2022/12/15 07:04:04;;;;;;;17.33;11.93;;;;;;;;;;5061846;28;20053;-72
2022/12/15 07:06:33;;;;;;;22.63;12.57;;;;;;;;;;5073257;28;20056;-74
2022/12/15 07:08:59;;;;;;;20.53;11.93;;;;;;;;;;5062857;28;20569;-72
2022/12/15 07:11:25;;;;;;;19.10;11.67;;;;;;;;;;5071173;28;20060;-71
2022/12/15 07:13:52;;;;;;;15.52;10.73;;;;;;;;;;5060308;28;20053;-71
2022/12/15 07:16:20;;;;;;;20.93;12.60;;;;;;;;;;5053787;28;20145;-73
2022/12/15 07:18:46;;;;;;;19.23;11.87;;;;;;;;;;5056561;28;20088;-71
2022/12/15 07:21:13;;;;;;;21.10;12.23;;;;;;;;;;5059591;28;20489;-72
2022/12/15 07:23:39;;;;;;;14.43;10.43;;;;;;;;;;5073015;28;20056;-72
2022/12/15 07:26:20;;;;;;;17.83;11.20;;;;;;;;;;5048779;28;20160;-72
2022/12/15 07:28:46;;;;;;;21.93;12.20;;;;;;;;;;5049282;28;20067;-72
2022/12/15 07:31:14;;;;;;;19.60;12.23;;;;;;;;;;5057730;28;20053;-72
2022/12/15 07:33:41;;;;;;;18.80;11.83;;;;;;;;;;5059806;28;20055;-72
2022/12/15 07:36:08;;;;;;;18.53;12.70;;;;;;;;;;5077059;28;20496;-72
2022/12/15 07:38:35;;;;;;;21.40;12.33;;;;;;;;;;5061990;28;20045;-71
2022/12/15 07:41:02;;;;;;;22.30;13.33;;;;;;;;;;5055367;28;20152;-70
2022/12/15 07:43:29;;;;;;;20.87;12.47;;;;;;;;;;5054890;28;20049;-71
2022/12/15 07:45:57;;;;;;;22.30;11.63;;;;;;;;;;5047090;28;20050;-70
2022/12/15 07:48:23;;;;;;;21.37;12.30;;;;;;;;;;5061024;28;20483;-71
2022/12/15 07:50:56;;;;;;;20.03;11.90;;;;;;;;;;5054917;28;20059;-71
2022/12/15 07:53:33;;;;;;;22.23;12.03;;;;;;;;;;5062303;28;20080;-71
2022/12/15 07:56:00;;;;;;;20.97;11.97;;;;;;;;;;5057139;28;20084;-69
2022/12/15 07:58:35;;;;;;;23.17;11.93;;;;;;;;;;5064598;28;20049;-70
2022/12/15 08:01:03;;;;;;;22.70;12.03;;;;;;;;;;5053859;28;20064;-70
2022/12/15 08:03:29;;;;;;;20.10;12.53;;;;;;;;;;5064069;28;20081;-70
2022/12/15 08:05:57;;;;;;;18.87;13.10;;;;;;;;;;5077599;28;20087;-69
2022/12/15 08:08:29;;;;;;;18.30;11.93;;;;;;;;;;5061355;28;20057;-70
2022/12/15 08:10:56;;;;;;;21.30;12.50;;;;;;;;;;5066091;28;20071;-70
2022/12/15 08:13:22;;;;;;;19.80;12.63;;;;;;;;;;5061292;28;20057;-72
2022/12/15 08:16:09;;;;;;;17.70;11.13;;;;;;;;;;5057566;28;20123;-71
2022/12/15 08:18:36;;;;;;;18.80;11.52;;;;;;;;;;5058038;28;20044;-70
2022/12/15 08:21:03;;;;;;;19.90;12.50;;;;;;;;;;5058411;28;20480;-70
2022/12/15 08:23:30;;;;;;;20.17;12.37;;;;;;;;;;5061235;28;20059;-71
2022/12/15 08:26:07;;;;;;;20.03;12.07;;;;;;;;;;5050721;28;20062;-70
2022/12/15 08:28:36;;;;;;;26.10;12.97;;;;;;;;;;5061069;28;20533;-71
2022/12/15 08:31:03;;;;;;;21.60;12.67;;;;;;;;;;5066605;28;20052;-70
2022/12/15 08:33:29;;;;;;;20.73;13.87;;;;;;;;;;5062493;28;20067;-71
2022/12/15 08:35:57;;;;;;;22.67;12.63;;;;;;;;;;5059355;28;20049;-71
2022/12/15 08:38:24;;;;;;;27.80;13.47;;;;;;;;;;5063216;28;20057;-72
2022/12/15 08:40:50;;;;;;;28.97;16.00;;;;;;;;;;5054345;28;20443;-71
2022/12/15 08:43:16;;;;;;;25.07;14.50;;;;;;;;;;5052174;28;20104;-71
2022/12/15 08:45:43;;;;;;;23.73;14.47;;;;;;;;;;5053383;28;20132;-71
2022/12/15 08:48:10;;;;;;;22.02;13.55;;;;;;;;;;5063408;28;20053;-71
2022/12/15 08:50:37;;;;;;;30.92;14.40;;;;;;;;;;5063659;28;20060;-70
2022/12/15 08:53:03;;;;;;;22.50;13.43;;;;;;;;;;5053306;28;20514;-71
2022/12/15 08:55:49;;;;;;;20.33;12.57;;;;;;;;;;5055893;28;20535;-71
2022/12/15 08:58:16;;;;;;;17.77;12.07;;;;;;;;;;5062517;28;20431;-71
2022/12/15 09:00:42;;;;;;;24.15;14.32;;;;;;;;;;5055523;28;20104;-72
2022/12/15 09:03:10;;;;;;;22.77;13.77;;;;;;;;;;5057562;28;20049;-70
2022/12/15 09:05:37;;;;;;;21.33;13.47;;;;;;;;;;5044886;28;20111;-71
2022/12/15 09:08:04;;;;;;;25.13;13.77;;;;;;;;;;5060132;28;20049;-71
2022/12/15 09:10:32;;;;;;;28.03;15.17;;;;;;;;;;5057679;28;20061;-72
2022/12/15 09:12:58;;;;;;;24.27;13.60;;;;;;;;;;5055826;28;20045;-71
2022/12/15 09:15:24;;;;;;;19.17;13.13;;;;;;;;;;5044272;28;20093;-71
2022/12/15 09:18:11;;;;;;;31.43;13.97;;;;;;;;;;5048646;28;20061;-71
2022/12/15 09:20:37;;;;;;;22.70;13.37;;;;;;;;;;5043461;28;20045;-69
2022/12/15 09:23:04;;;;;;;30.73;13.83;;;;;;;;;;5058797;28;20049;-69
2022/12/15 09:25:30;;;;;;;24.67;13.03;;;;;;;;;;5043851;28;20097;-71
2022/12/15 09:27:56;;;;;;;21.43;14.13;;;;;;;;;;5052601;28;20057;-71
2022/12/15 09:30:23;;;;;;;19.53;13.67;;;;;;;;;;5058076;28;20503;-70
2022/12/15 09:32:49;;;;;;;26.70;14.70;;;;;;;;;;5063069;28;20049;-72
2022/12/15 09:35:16;;;;;;;21.73;12.67;;;;;;;;;;5047401;28;20584;-73
2022/12/15 09:37:42;;;;;;;19.53;13.30;;;;;;;;;;5054889;28;20511;-70
2022/12/15 09:40:16;;;;;;;28.43;13.93;;;;;;;;;;5061130;28;20219;-70
2022/12/15 09:42:45;;;;;;;24.83;13.63;;;;;;;;;;5058517;28;20079;-69
2022/12/15 09:45:37;;;;;;;28.17;16.13;;;;;;;;;;5051603;28;20055;-69
2022/12/15 09:48:05;;;;;;;33.70;15.70;;;;;;;;;;5059608;28;20084;-70
2022/12/15 09:50:33;;;;;;;34.47;15.97;;;;;;;;;;5043044;28;20141;-70
2022/12/15 09:53:01;;;;;;;26.90;14.23;;;;;;;;;;5061584;28;20045;-70
2022/12/15 09:55:31;;;;;;;24.48;14.45;;;;;;;;;;5056421;28;20530;-70
2022/12/15 09:58:02;;;;;;;19.77;13.85;;;;;;;;;;5060374;28;20515;-70
2022/12/15 10:00:38;;;;;;;20.48;13.82;;;;;;;;;;5053964;28;20064;-69
2022/12/15 10:03:23;;;;;;;21.38;13.15;;;;;;;;;;5061216;28;20049;-70
2022/12/15 10:06:05;;;;;;;23.30;13.13;;;;;;;;;;5055901;28;20049;-70
2022/12/15 10:09:11;;;;;;;22.70;12.93;;;;;;;;;;5041943;28;20532;-69
2022/12/15 10:11:44;;;;;;;22.38;13.02;;;;;;;;;;5065191;28;20139;-70
2022/12/15 10:14:15;;;;;;;20.55;12.98;;;;;;;;;;5049734;28;20058;-68
2022/12/15 10:16:57;;;;;;;27.30;13.40;;;;;;;;;;5051120;28;20050;-68
2022/12/15 10:19:35;;;;;;;27.67;16.00;;;;;;;;;;5049662;28;20721;-71
2022/12/15 10:22:02;;;;;;;23.00;13.80;;;;;;;;;;5064075;28;20049;-73
2022/12/15 10:24:29;;;;;;;20.65;13.23;;;;;;;;;;5063492;28;20053;-71
2022/12/15 10:27:18;;;;;;;24.05;13.68;;;;;;;;;;5060567;28;20057;-71
2022/12/15 10:29:46;;;;;;;27.45;14.05;;;;;;;;;;5042486;28;20526;-71
2022/12/15 10:32:18;;;;;;;32.30;13.75;;;;;;;;;;5071228;28;20096;-71
2022/12/15 10:34:44;;;;;;;25.05;15.07;;;;;;;;;;5046950;28;20053;-70
2022/12/15 10:37:20;;;;;;;27.65;15.38;;;;;;;;;;5080084;27;20570;-69
2022/12/15 10:39:47;;;;;;;25.90;14.82;;;;;;;;;;5061641;28;20056;-71
2022/12/15 10:42:19;;;;;;;25.58;14.77;;;;;;;;;;5062630;28;20049;-71
2022/12/15 10:44:47;;;;;;;25.15;14.45;;;;;;;;;;5066955;28;20057;-70
2022/12/15 10:47:15;;;;;;;22.98;14.00;;;;;;;;;;5050670;28;20056;-70
2022/12/15 10:49:42;;;;;;;25.80;14.82;;;;;;;;;;5055063;28;20427;-70
2022/12/15 10:52:22;;;;;;;29.38;15.52;;;;;;;;;;5047351;28;20048;-70
2022/12/15 10:54:49;;;;;;;25.25;14.75;;;;;;;;;;5062741;28;20049;-69
2022/12/15 10:57:27;;;;;;;35.75;16.88;;;;;;;;;;5060736;28;20118;-69
2022/12/15 10:59:54;;;;;;;29.65;16.52;;;;;;;;;;5042424;28;20061;-69
2022/12/15 11:02:22;;;;;;;28.30;16.33;;;;;;;;;;5045087;28;20057;-68
2022/12/15 11:05:16;;;;;;;27.38;15.82;;;;;;;;;;5064334;28;20053;-70
2022/12/15 11:07:45;;;;;;;26.77;16.73;;;;;;;;;;5041576;28;20552;-71
2022/12/15 11:10:23;;;;;;;25.48;16.88;;;;;;;;;;5059440;28;20045;-71
2022/12/15 11:13:09;;;;;;;24.00;15.07;;;;;;;;;;5059361;28;20044;-71
2022/12/15 11:15:37;;;;;;;29.42;16.20;;;;;;;;;;5082296;28;20045;-70
2022/12/15 11:18:17;;;;;;;25.15;16.42;;;;;;;;;;5074102;28;20053;-71
2022/12/15 11:20:46;;;;;;;30.05;17.73;;;;;;;;;;5065567;28;20140;-70
2022/12/15 11:23:19;;;;;;;29.80;17.80;;;;;;;;;;5062477;28;20237;-71
2022/12/15 11:25:52;;;;;;;26.90;18.42;;;;;;;;;;5060405;28;20592;-71
2022/12/15 11:28:22;;;;;;;31.75;16.20;;;;;;;;;;5056160;28;20049;-71
2022/12/15 11:30:55;;;;;;;29.08;16.67;;;;;;;;;;5068630;28;20060;-71
2022/12/15 11:33:22;;;;;;;28.33;15.68;;;;;;;;;;5062192;28;20095;-71
2022/12/15 11:36:11;;;;;;;21.92;14.73;;;;;;;;;;5075557;28;20122;-71
2022/12/15 11:38:43;;;;;;;22.90;12.77;;;;;;;;;;5062150;28;20455;-70
2022/12/15 11:41:28;;;;;;;20.65;13.48;;;;;;;;;;5042961;28;20045;-70
2022/12/15 11:44:08;;;;;;;35.13;13.85;;;;;;;;;;5067426;28;20645;-69
2022/12/15 11:46:41;;;;;;;32.78;13.38;;;;;;;;;;5084496;28;20132;-70
2022/12/15 11:49:10;;;;;;;20.10;12.98;;;;;;;;;;5066718;28;20989;-70
2022/12/15 11:51:47;;;;;;;24.88;13.40;;;;;;;;;;5058321;28;20536;-69
2022/12/15 11:54:36;;;;;;;21.70;13.48;;;;;;;;;;5069945;28;20096;-69
2022/12/15 11:57:14;;;;;;;19.40;12.88;;;;;;;;;;5049248;28;20466;-69
2022/12/15 11:59:47;;;;;;;23.88;13.25;;;;;;;;;;5056428;28;20049;-69
2022/12/15 12:02:34;;;;;;;21.95;12.35;;;;;;;;;;5091514;28;20059;-68
2022/12/15 12:05:21;;;;;;;24.40;13.88;;;;;;;;;;5081530;28;20828;-68
2022/12/15 12:08:09;;;;;;;21.88;12.80;;;;;;;;;;5072983;28;20807;-69
2022/12/15 12:10:46;;;;;;;21.67;13.38;;;;;;;;;;5072787;28;20056;-68
2022/12/15 12:13:20;;;;;;;25.52;15.07;;;;;;;;;;5068322;28;20049;-70
2022/12/15 12:15:58;;;;;;;22.02;13.77;;;;;;;;;;5064199;28;20073;-69
2022/12/15 12:18:29;;;;;;;22.05;13.00;;;;;;;;;;5064754;28;20131;-71
2022/12/15 12:21:13;;;;;;;24.15;14.18;;;;;;;;;;5057788;28;20520;-71
2022/12/15 12:23:52;;;;;;;21.75;13.68;;;;;;;;;;5074205;28;20087;-68
2022/12/15 12:26:18;;;;;;;19.98;12.90;;;;;;;;;;5044615;28;20088;-68
2022/12/15 12:28:47;;;;;;;22.13;13.50;;;;;;;;;;5056505;28;20073;-70
2022/12/15 12:31:19;;;;;;;23.00;14.10;;;;;;;;;;5064848;28;20049;-70
2022/12/15 12:33:48;;;;;;;23.92;15.00;;;;;;;;;;5063286;28;20518;-70
2022/12/15 12:36:15;;;;;;;22.10;13.00;;;;;;;;;;5061966;28;20096;-69
2022/12/15 12:39:02;;;;;;;26.35;14.63;;;;;;;;;;5064609;28;20564;-67
2022/12/15 12:41:46;;;;;;;18.13;12.95;;;;;;;;;;5060210;28;20048;-69
2022/12/15 12:44:13;;;;;;;22.00;13.70;;;;;;;;;;5063120;28;20434;-68
2022/12/15 12:46:41;;;;;;;21.15;13.30;;;;;;;;;;5065118;28;20052;-69
2022/12/15 12:49:16;;;;;;;26.33;13.85;;;;;;;;;;5064676;28;20426;-69
2022/12/15 12:51:52;;;;;;;25.02;14.77;;;;;;;;;;5052715;28;20531;-69
2022/12/15 12:54:36;;;;;;;23.98;13.93;;;;;;;;;;5057702;28;20608;-72
2022/12/15 12:57:12;;;;;;;27.10;14.80;;;;;;;;;;5044232;28;20057;-73
2022/12/15 12:59:46;;;;;;;23.92;14.95;;;;;;;;;;5061845;28;20449;-72
2022/12/15 13:02:14;;;;;;;23.73;14.10;;;;;;;;;;5062080;28;20041;-70
2022/12/15 13:04:50;;;;;;;22.98;15.02;;;;;;;;;;5065154;28;20064;-72
2022/12/15 13:07:26;;;;;;;24.85;14.23;;;;;;;;;;5060049;28;20610;-71
2022/12/15 13:10:11;;;;;;;30.58;17.13;;;;;;;;;;5064901;28;20068;-72
2022/12/15 13:12:37;;;;;;;24.45;16.35;;;;;;;;;;5066058;28;20425;-69
2022/12/15 13:15:26;;;;;;;24.08;16.65;;;;;;;;;;5063796;28;20054;-70
2022/12/15 13:18:12;;;;;;;31.23;18.27;;;;;;;;;;5052947;28;20142;-69
2022/12/15 13:20:39;;;;;;;28.30;17.67;;;;;;;;;;5062792;28;20523;-69
2022/12/15 13:23:15;;;;;;;26.08;16.63;;;;;;;;;;5062362;28;20523;-69
2022/12/15 13:25:45;;;;;;;22.48;16.30;;;;;;;;;;5047800;28;20054;-70
2022/12/15 13:28:34;;;;;;;31.05;17.20;;;;;;;;;;5047835;28;20079;-70
2022/12/15 13:31:10;;;;;;;25.58;17.17;;;;;;;;;;5048241;28;20133;-70
2022/12/15 13:33:48;;;;;;;28.70;17.73;;;;;;;;;;5061389;28;20057;-70
2022/12/15 13:36:33;;;;;;;25.13;16.80;;;;;;;;;;5056612;28;20156;-71
2022/12/15 13:39:00;;;;;;;28.90;17.10;;;;;;;;;;5068439;28;20057;-71
2022/12/15 13:41:26;;;;;;;24.25;17.27;;;;;;;;;;5066886;28;20144;-70
2022/12/15 13:43:53;;;;;;;32.47;17.98;;;;;;;;;;5062054;28;20599;-70
2022/12/15 13:46:22;;;;;;;30.42;17.80;;;;;;;;;;5058674;28;20057;-70
2022/12/15 13:49:03;;;;;;;26.60;17.73;;;;;;;;;;5064732;28;20060;-70
2022/12/15 13:51:34;;;;;;;30.13;19.08;;;;;;;;;;5063858;28;20049;-69
2022/12/15 13:54:11;;;;;;;28.90;18.20;;;;;;;;;;5060708;28;20456;-70
2022/12/15 13:56:40;;;;;;;27.33;16.92;;;;;;;;;;5064827;28;20059;-70
2022/12/15 13:59:13;;;;;;;30.67;18.58;;;;;;;;;;5063383;28;20136;-71
2022/12/15 14:01:46;;;;;;;31.27;18.23;;;;;;;;;;5062668;28;20135;-70
2022/12/15 14:04:16;;;;;;;27.20;16.63;;;;;;;;;;5061043;28;20053;-71
2022/12/15 14:06:50;;;;;;;27.05;17.55;;;;;;;;;;5042849;28;20050;-71
2022/12/15 14:09:28;;;;;;;27.95;17.90;;;;;;;;;;5053510;28;20522;-71
2022/12/15 14:11:54;;;;;;;25.10;16.20;;;;;;;;;;5064240;28;20144;-70
2022/12/15 14:14:23;;;;;;;28.20;18.85;;;;;;;;;;5063248;28;20560;-71
2022/12/15 14:16:54;;;;;;;27.67;18.05;;;;;;;;;;5061778;28;20140;-70
2022/12/15 14:19:21;;;;;;;29.20;18.30;;;;;;;;;;5072315;28;20118;-70
2022/12/15 14:21:52;;;;;;;29.27;18.95;;;;;;;;;;5068454;28;20053;-70
2022/12/15 14:24:25;;;;;;;36.25;19.77;;;;;;;;;;5062730;28;20052;-69
2022/12/15 14:27:07;;;;;;;31.88;20.08;;;;;;;;;;5062821;28;20076;-69
2022/12/15 14:29:34;;;;;;;30.65;20.33;;;;;;;;;;5053113;28;20061;-70
2022/12/15 14:32:00;;;;;;;34.47;20.77;;;;;;;;;;5043400;28;20053;-69
2022/12/15 14:34:32;;;;;;;34.03;20.27;;;;;;;;;;5052483;28;20053;-69
2022/12/15 14:37:01;;;;;;;32.55;21.27;;;;;;;;;;5063347;28;20143;-69
2022/12/15 14:39:47;;;;;;;32.58;21.70;;;;;;;;;;5062627;28;20041;-69
2022/12/15 14:42:26;;;;;;;32.05;20.90;;;;;;;;;;5062047;28;20052;-70
2022/12/15 14:44:52;;;;;;;32.22;19.45;;;;;;;;;;5062707;28;20123;-70
2022/12/15 14:47:34;;;;;;;37.10;20.33;;;;;;;;;;5045194;28;20115;-69
2022/12/15 14:50:01;;;;;;;31.85;20.40;;;;;;;;;;5061197;28;20072;-69
2022/12/15 14:52:32;;;;;;;38.60;21.85;;;;;;;;;;5063045;28;20051;-69
2022/12/15 14:55:00;;;;;;;26.83;18.38;;;;;;;;;;5063526;28;20329;-70
2022/12/15 14:57:36;;;;;;;38.78;19.98;;;;;;;;;;5064683;28;20056;-71
2022/12/15 15:00:21;;;;;;;34.47;19.38;;;;;;;;;;5069023;28;20064;-71
2022/12/15 15:02:48;;;;;;;31.95;20.55;;;;;;;;;;5047845;28;20140;-71
2022/12/15 15:05:25;;;;;;;35.17;21.08;;;;;;;;;;5066716;28;20473;-70
2022/12/15 15:07:55;;;;;;;35.92;21.83;;;;;;;;;;5062386;28;20576;-71
2022/12/15 15:10:23;;;;;;;34.75;20.25;;;;;;;;;;5060866;28;20439;-70
2022/12/15 15:12:51;;;;;;;28.88;21.08;;;;;;;;;;5058790;28;20053;-70
2022/12/15 15:15:18;;;;;;;31.58;21.10;;;;;;;;;;5057138;28;20719;-70
2022/12/15 15:17:49;;;;;;;34.40;21.63;;;;;;;;;;5047010;28;20064;-70
2022/12/15 15:20:36;;;;;;;36.67;22.42;;;;;;;;;;5071091;28;20554;-71
2022/12/15 15:23:05;;;;;;;37.10;21.80;;;;;;;;;;5049787;28;20044;-72
2022/12/15 15:25:32;;;;;;;36.97;22.98;;;;;;;;;;5064705;28;20049;-72
2022/12/15 15:28:13;;;;;;;36.22;22.27;;;;;;;;;;5069998;28;20049;-71
2022/12/15 15:30:41;;;;;;;31.60;21.10;;;;;;;;;;5057795;28;20485;-73
2022/12/15 15:33:08;;;;;;;36.25;22.65;;;;;;;;;;5062080;28;20527;-72
2022/12/15 15:35:34;;;;;;;38.75;23.40;;;;;;;;;;5057023;28;20787;-71
2022/12/15 15:38:03;;;;;;;32.90;21.88;;;;;;;;;;5052431;28;20049;-71
2022/12/15 15:40:30;;;;;;;41.08;24.60;;;;;;;;;;5065784;28;20056;-71
2022/12/15 15:42:56;;;;;;;32.65;21.60;;;;;;;;;;5060160;28;20140;-72
2022/12/15 15:45:23;;;;;;;37.33;24.10;;;;;;;;;;5070756;28;20063;-72
2022/12/15 15:47:50;;;;;;;38.08;24.40;;;;;;;;;;5056266;28;20061;-72
2022/12/15 15:50:24;;;;;;;38.53;24.25;;;;;;;;;;5065242;28;20910;-72
2022/12/15 15:52:50;;;;;;;34.15;22.98;;;;;;;;;;5066270;28;20160;-72
2022/12/15 15:55:19;;;;;;;37.25;23.35;;;;;;;;;;5059327;28;20064;-70
2022/12/15 15:57:45;;;;;;;34.58;21.80;;;;;;;;;;5049790;28;20103;-71
2022/12/15 16:00:15;;;;;;;34.50;21.98;;;;;;;;;;5063065;28;20049;-72
2022/12/15 16:02:42;;;;;;;39.95;23.83;;;;;;;;;;5057106;28;20056;-71
2022/12/15 16:05:08;;;;;;;44.78;26.13;;;;;;;;;;5051511;28;20053;-71
2022/12/15 16:07:35;;;;;;;37.70;23.30;;;;;;;;;;5049866;28;20049;-71
2022/12/15 16:10:03;;;;;;;42.08;25.55;;;;;;;;;;5058505;28;20049;-73
2022/12/15 16:12:34;;;;;;;38.53;24.52;;;;;;;;;;5049968;28;20137;-73
2022/12/15 16:15:01;;;;;;;42.25;24.98;;;;;;;;;;5049390;28;20089;-72
2022/12/15 16:17:27;;;;;;;37.80;25.10;;;;;;;;;;5063377;28;20945;-71
2022/12/15 16:19:53;;;;;;;36.10;24.02;;;;;;;;;;5066504;28;20601;-72
2022/12/15 16:22:21;;;;;;;40.05;24.98;;;;;;;;;;5064551;28;20059;-72
2022/12/15 16:24:48;;;;;;;41.08;25.05;;;;;;;;;;5071604;28;20064;-72
2022/12/15 16:27:15;;;;;;;41.63;25.30;;;;;;;;;;5052038;28;20582;-72
2022/12/15 16:29:41;;;;;;;36.95;26.05;;;;;;;;;;5049404;28;20168;-73
2022/12/15 16:32:09;;;;;;;42.35;24.88;;;;;;;;;;5057463;28;20124;-70
2022/12/15 16:34:36;;;;;;;41.95;25.58;;;;;;;;;;5057717;28;20583;-71
2022/12/15 16:37:03;;;;;;;41.28;25.60;;;;;;;;;;5056445;28;20318;-71
2022/12/15 16:39:30;;;;;;;42.72;25.67;;;;;;;;;;5051374;28;20586;-70
2022/12/15 16:41:57;;;;;;;43.47;25.00;;;;;;;;;;5048632;28;20132;-71
2022/12/15 16:44:24;;;;;;;43.85;27.60;;;;;;;;;;5055322;28;20046;-71
2022/12/15 16:46:50;;;;;;;46.45;27.92;;;;;;;;;;5050917;28;20059;-71
2022/12/15 16:49:17;;;;;;;46.72;26.95;;;;;;;;;;5057414;28;20121;-71
2022/12/15 16:51:48;;;;;;;45.70;27.13;;;;;;;;;;5058389;28;20107;-71
2022/12/15 16:54:16;;;;;;;42.30;26.27;;;;;;;;;;5064070;28;20115;-71
2022/12/15 16:56:43;;;;;;;42.33;26.77;;;;;;;;;;5064713;28;20057;-70
2022/12/15 16:59:16;;;;;;;36.92;26.02;;;;;;;;;;5057797;28;20053;-70
2022/12/15 17:02:00;;;;;;;38.35;25.55;;;;;;;;;;5054764;28;20538;-71
2022/12/15 17:04:27;;;;;;;41.33;26.60;;;;;;;;;;5064698;28;20538;-71